createdAt,value
2022-11-05T00:00:14.349Z,4.10
2022-11-05T00:02:59.596Z,3.60
2022-11-05T00:05:45.374Z,3.00
2022-11-05T00:08:31.174Z,3.03
2022-11-05T00:10:58.189Z,3.17
2022-11-05T00:13:44.179Z,3.33
2022-11-05T00:16:29.560Z,2.80
2022-11-05T00:19:09.024Z,2.88
2022-11-05T00:21:58.428Z,3.30
2022-11-05T00:24:43.932Z,5.07
2022-11-05T00:27:11.113Z,4.88
2022-11-05T00:29:38.309Z,3.90
2022-11-05T00:32:05.289Z,2.97
2022-11-05T00:34:32.417Z,3.65
2022-11-05T00:36:59.182Z,3.35
2022-11-05T00:39:26.056Z,3.15
2022-11-05T00:42:11.252Z,2.95
2022-11-05T00:44:56.911Z,2.83
2022-11-05T00:47:42.546Z,2.25
2022-11-05T00:50:10.773Z,2.10
2022-11-05T00:52:57.156Z,2.13
2022-11-05T00:55:25.780Z,2.47
2022-11-05T00:57:52.667Z,2.37
2022-11-05T01:00:19.851Z,2.65
2022-11-05T01:02:46.862Z,2.65
2022-11-05T01:05:14.344Z,2.50
2022-11-05T01:07:41.347Z,2.40
2022-11-05T01:10:08.663Z,2.17
2022-11-05T01:12:35.694Z,1.95
2022-11-05T01:15:02.590Z,1.98
2022-11-05T01:17:29.354Z,2.28
2022-11-05T01:19:56.182Z,2.33
2022-11-05T01:22:22.960Z,2.17
2022-11-05T01:24:49.936Z,2.55
2022-11-05T01:27:16.685Z,2.33
2022-11-05T01:29:43.540Z,2.70
2022-11-05T01:32:10.406Z,3.33
2022-11-05T01:34:37.334Z,4.32
2022-11-05T01:37:04.399Z,4.72
2022-11-05T01:39:31.322Z,6.80
2022-11-05T01:41:59.090Z,8.52
2022-11-05T01:44:48.130Z,8.10
2022-11-05T01:47:53.741Z,7.95
2022-11-05T01:50:48.538Z,6.80
2022-11-05T01:53:29.094Z,5.70
2022-11-05T01:56:05.278Z,5.50
2022-11-05T01:59:01.468Z,5.28
2022-11-05T02:01:28.437Z,5.03
2022-11-05T02:03:59.570Z,4.57
2022-11-05T02:06:29.151Z,4.18
2022-11-05T02:09:10.295Z,3.65
2022-11-05T02:11:37.308Z,3.67
2022-11-05T02:14:04.409Z,3.88
2022-11-05T02:16:39.886Z,4.22
2022-11-05T02:19:12.481Z,4.63
2022-11-05T02:22:23.556Z,3.88
2022-11-05T02:25:01.125Z,3.78
2022-11-05T02:27:34.064Z,4.13
2022-11-05T02:30:28.226Z,4.25
2022-11-05T02:33:03.101Z,4.32
2022-11-05T02:35:37.133Z,4.63
2022-11-05T02:38:16.729Z,4.97
2022-11-05T02:41:00.146Z,6.18
2022-11-05T02:43:51.029Z,6.28
2022-11-05T02:46:31.201Z,6.55
2022-11-05T02:49:12.764Z,6.00
2022-11-05T02:51:56.659Z,6.00
2022-11-05T02:54:36.586Z,5.35
2022-11-05T02:57:04.912Z,5.95
2022-11-05T02:59:32.015Z,5.82
2022-11-05T03:02:00.927Z,6.00
2022-11-05T03:04:29.238Z,6.25
2022-11-05T03:07:13.640Z,5.53
2022-11-05T03:10:01.760Z,5.60
2022-11-05T03:12:37.611Z,5.47
2022-11-05T03:15:13.111Z,5.90
2022-11-05T03:17:59.443Z,4.82
2022-11-05T03:20:37.310Z,5.20
2022-11-05T03:23:04.051Z,5.65
2022-11-05T03:25:37.233Z,5.13
2022-11-05T03:28:07.020Z,4.70
2022-11-05T03:30:36.634Z,4.68
2022-11-05T03:33:19.324Z,4.63
2022-11-05T03:35:50.696Z,4.85
2022-11-05T03:38:28.097Z,4.50
2022-11-05T03:40:57.442Z,4.53
2022-11-05T03:43:29.254Z,4.45
2022-11-05T03:46:12.068Z,4.50
2022-11-05T03:48:44.339Z,3.88
2022-11-05T03:51:24.683Z,4.50
2022-11-05T03:53:57.479Z,4.40
2022-11-05T03:56:34.678Z,4.13
2022-11-05T03:59:02.788Z,3.70
2022-11-05T04:01:30.624Z,3.90
2022-11-05T04:03:57.594Z,3.83
2022-11-05T04:06:43.071Z,3.80
2022-11-05T04:09:29.246Z,3.92
2022-11-05T04:12:14.978Z,3.42
2022-11-05T04:14:41.813Z,3.47
2022-11-05T04:17:11.521Z,3.53
2022-11-05T04:19:59.208Z,3.33
2022-11-05T04:22:46.541Z,3.35
2022-11-05T04:25:16.301Z,3.90
2022-11-05T04:27:44.010Z,3.22
2022-11-05T04:30:21.934Z,3.40
2022-11-05T04:32:58.799Z,3.45
2022-11-05T04:35:26.774Z,3.25
2022-11-05T04:37:53.751Z,3.33
2022-11-05T04:40:20.545Z,3.63
2022-11-05T04:42:47.321Z,3.55
2022-11-05T04:45:14.236Z,3.38
2022-11-05T04:47:41.072Z,3.60
2022-11-05T04:50:10.528Z,3.80
2022-11-05T04:52:37.633Z,3.58
2022-11-05T04:55:04.687Z,3.20
2022-11-05T04:57:31.764Z,3.15
2022-11-05T04:59:58.522Z,3.83
2022-11-05T05:02:25.404Z,3.28
2022-11-05T05:04:52.278Z,3.35
2022-11-05T05:07:19.200Z,3.00
2022-11-05T05:09:46.068Z,3.00
2022-11-05T05:12:12.881Z,2.47
2022-11-05T05:14:39.777Z,2.05
2022-11-05T05:17:06.655Z,2.60
2022-11-05T05:19:53.401Z,1.83
2022-11-05T05:22:20.199Z,1.60
2022-11-05T05:24:52.448Z,1.20
2022-11-05T05:27:20.118Z,1.10
2022-11-05T05:29:46.896Z,0.90
2022-11-05T05:32:13.847Z,1.10
2022-11-05T05:34:40.680Z,0.90
2022-11-05T05:37:07.500Z,0.80
2022-11-05T05:39:34.290Z,0.77
2022-11-05T05:42:01.127Z,0.70
2022-11-05T05:44:27.886Z,0.90
2022-11-05T05:46:55.550Z,1.00
2022-11-05T05:49:22.358Z,0.60
2022-11-05T05:51:49.944Z,0.85
2022-11-05T05:54:17.193Z,1.00
2022-11-05T05:56:44.790Z,1.08
2022-11-05T05:59:12.129Z,0.95
2022-11-05T06:01:39.069Z,1.13
2022-11-05T06:04:06.110Z,0.98
2022-11-05T06:06:33.184Z,0.60
2022-11-05T06:09:00.264Z,0.82
2022-11-05T06:11:27.195Z,0.75
2022-11-05T06:13:54.000Z,0.70
2022-11-05T06:16:21.175Z,0.50
2022-11-05T06:18:48.164Z,0.60
2022-11-05T06:21:17.093Z,0.73
2022-11-05T06:23:45.481Z,0.70
2022-11-05T06:26:15.286Z,0.60
2022-11-05T06:28:42.531Z,0.70
2022-11-05T06:31:10.410Z,0.60
2022-11-05T06:33:37.667Z,0.63
2022-11-05T06:36:05.906Z,0.60
2022-11-05T06:38:34.418Z,0.60
2022-11-05T06:41:07.264Z,0.60
2022-11-05T06:43:36.773Z,1.30
2022-11-05T06:46:04.126Z,1.23
2022-11-05T06:48:31.107Z,2.20
2022-11-05T06:50:57.912Z,2.40
2022-11-05T06:53:25.532Z,2.40
2022-11-05T06:55:52.370Z,2.08
2022-11-05T06:58:19.501Z,2.13
2022-11-05T07:00:46.412Z,2.35
2022-11-05T07:03:14.216Z,1.77
2022-11-05T07:05:47.988Z,1.13
2022-11-05T07:08:15.541Z,1.05
2022-11-05T07:10:42.375Z,1.20
2022-11-05T07:13:09.349Z,1.20
2022-11-05T07:15:37.295Z,1.45
2022-11-05T07:18:07.237Z,1.90
2022-11-05T07:20:34.895Z,2.60
2022-11-05T07:23:06.660Z,2.75
2022-11-05T07:25:34.436Z,2.22
2022-11-05T07:28:02.471Z,2.58
2022-11-05T07:30:30.595Z,2.15
2022-11-05T07:32:57.681Z,3.25
2022-11-05T07:35:25.187Z,3.92
2022-11-05T07:37:56.157Z,2.53
2022-11-05T07:40:25.446Z,1.70
2022-11-05T07:42:54.585Z,1.58
2022-11-05T07:45:22.564Z,1.67
2022-11-05T07:47:55.424Z,1.75
2022-11-05T07:50:24.821Z,1.98
2022-11-05T07:52:51.766Z,3.92
2022-11-05T07:55:20.604Z,1.98
2022-11-05T07:57:49.853Z,1.70
2022-11-05T08:00:20.181Z,2.08
2022-11-05T08:03:08.728Z,2.30
2022-11-05T08:05:37.933Z,2.58
2022-11-05T08:08:06.060Z,2.90
2022-11-05T08:10:34.248Z,3.10
2022-11-05T08:13:01.402Z,4.55
2022-11-05T08:15:28.900Z,5.57
2022-11-05T08:18:06.546Z,5.50
2022-11-05T08:20:34.874Z,6.22
2022-11-05T08:23:01.877Z,5.95
2022-11-05T08:25:28.694Z,6.00
2022-11-05T08:27:57.575Z,6.25
2022-11-05T08:30:24.838Z,5.50
2022-11-05T08:32:51.720Z,5.10
2022-11-05T08:35:20.067Z,6.28
2022-11-05T08:37:46.781Z,5.70
2022-11-05T08:40:13.659Z,7.03
2022-11-05T08:42:40.403Z,7.18
2022-11-05T08:45:07.921Z,7.30
2022-11-05T08:47:34.675Z,8.02
2022-11-05T08:50:01.626Z,6.57
2022-11-05T08:52:28.414Z,7.28
2022-11-05T08:54:55.199Z,7.63
2022-11-05T08:57:21.980Z,9.15
2022-11-05T08:59:48.827Z,9.90
2022-11-05T09:02:15.714Z,8.15
2022-11-05T09:04:42.654Z,10.57
2022-11-05T09:07:09.557Z,8.93
2022-11-05T09:09:36.471Z,8.13
2022-11-05T09:12:12.194Z,11.43
2022-11-05T09:14:39.751Z,7.70
2022-11-05T09:17:18.051Z,9.20
2022-11-05T09:19:45.352Z,9.25
2022-11-05T09:22:12.924Z,9.70
2022-11-05T09:24:40.564Z,15.40
2022-11-05T09:27:10.337Z,11.13
2022-11-05T09:29:37.696Z,9.52
2022-11-05T09:32:04.745Z,9.15
2022-11-05T09:34:31.703Z,8.35
2022-11-05T09:36:58.678Z,6.97
2022-11-05T09:39:25.498Z,14.05
2022-11-05T09:41:54.950Z,10.13
2022-11-05T09:44:23.460Z,11.18
2022-11-05T09:46:56.513Z,7.72
2022-11-05T09:49:29.400Z,6.97
2022-11-05T09:51:58.425Z,7.50
2022-11-05T09:54:31.539Z,7.70
2022-11-05T09:57:01.987Z,7.40
2022-11-05T09:59:37.401Z,5.93
2022-11-05T10:02:11.806Z,5.68
2022-11-05T10:04:39.892Z,6.13
2022-11-05T10:07:10.594Z,6.32
2022-11-05T10:09:45.247Z,5.35
2022-11-05T10:12:14.173Z,4.88
2022-11-05T10:14:46.753Z,7.35
2022-11-05T10:17:27.318Z,4.95
2022-11-05T10:19:58.215Z,4.72
2022-11-05T10:22:25.481Z,5.35
2022-11-05T10:24:53.662Z,5.00
2022-11-05T10:27:32.596Z,5.15
2022-11-05T10:30:00.418Z,4.57
2022-11-05T10:32:39.574Z,5.80
2022-11-05T10:35:10.620Z,6.70
2022-11-05T10:37:40.815Z,6.18
2022-11-05T10:40:49.928Z,6.53
2022-11-05T10:43:44.904Z,6.20
2022-11-05T10:46:21.024Z,6.60
2022-11-05T10:49:25.293Z,6.28
2022-11-05T10:51:58.873Z,6.68
2022-11-05T10:54:33.983Z,6.55
2022-11-05T10:57:00.872Z,6.28
2022-11-05T10:59:29.976Z,6.43
2022-11-05T11:02:03.135Z,7.10
2022-11-05T11:04:36.491Z,7.65
2022-11-05T11:07:04.876Z,7.45
2022-11-05T11:09:35.840Z,8.13
2022-11-05T11:12:02.986Z,7.25
2022-11-05T11:14:30.116Z,7.32
2022-11-05T11:17:17.948Z,7.07
2022-11-05T11:19:44.762Z,8.18
2022-11-05T11:22:14.254Z,8.60
2022-11-05T11:24:43.622Z,8.48
2022-11-05T11:27:14.772Z,9.70
2022-11-05T11:29:49.201Z,9.52
2022-11-05T11:32:19.501Z,7.72
2022-11-05T11:34:50.774Z,8.68
2022-11-05T11:37:24.351Z,7.53
2022-11-05T11:40:02.004Z,6.55
2022-11-05T11:42:35.895Z,7.38
2022-11-05T11:45:15.729Z,7.10
2022-11-05T11:47:49.020Z,6.90
2022-11-05T11:50:36.416Z,7.85
2022-11-05T11:53:21.400Z,7.90
2022-11-05T11:55:56.954Z,6.82
2022-11-05T11:58:35.702Z,7.32
2022-11-05T12:01:21.617Z,8.50
2022-11-05T12:04:00.934Z,7.35
2022-11-05T12:06:46.060Z,6.93
2022-11-05T12:09:31.871Z,7.90
2022-11-05T12:12:14.105Z,8.02
2022-11-05T12:15:03.565Z,7.72
2022-11-05T12:17:35.222Z,7.45
2022-11-05T12:20:11.575Z,7.00
2022-11-05T12:22:41.504Z,8.40
2022-11-05T12:25:23.361Z,8.57
2022-11-05T12:28:14.196Z,8.10
2022-11-05T12:31:21.332Z,9.18
2022-11-05T12:34:31.914Z,7.90
2022-11-05T12:37:04.510Z,8.38
2022-11-05T12:39:52.144Z,7.50
2022-11-05T12:42:39.918Z,8.23
2022-11-05T12:45:21.659Z,17.02
2022-11-05T12:48:42.821Z,8.02
2022-11-05T12:51:32.943Z,7.05
2022-11-05T12:54:14.997Z,8.88
2022-11-05T12:56:49.987Z,7.47
2022-11-05T12:59:16.977Z,8.48
2022-11-05T13:01:48.958Z,9.50
2022-11-05T13:04:29.012Z,10.05
2022-11-05T13:06:57.442Z,11.68
2022-11-05T13:09:54.453Z,10.70
2022-11-05T13:12:24.676Z,8.77
2022-11-05T13:14:57.612Z,34.85
2022-11-05T13:17:42.466Z,13.63
2022-11-05T13:20:22.650Z,12.68
2022-11-05T13:22:59.430Z,17.17
2022-11-05T13:25:33.464Z,9.93
2022-11-05T13:28:10.392Z,10.50
2022-11-05T13:30:41.600Z,14.40
2022-11-05T13:33:08.508Z,9.23
2022-11-05T13:35:45.262Z,6.70
2022-11-05T13:38:43.707Z,6.13
2022-11-05T13:41:48.428Z,6.40
2022-11-05T13:44:50.389Z,6.32
2022-11-05T13:47:30.222Z,7.60
2022-11-05T13:50:09.400Z,8.32
2022-11-05T13:52:44.933Z,8.27
2022-11-05T13:55:31.915Z,10.93
2022-11-05T13:58:14.124Z,11.50
2022-11-05T14:00:59.892Z,13.57
2022-11-05T14:03:27.287Z,6.60
2022-11-05T14:06:02.270Z,5.57
2022-11-05T14:08:29.793Z,6.60
2022-11-05T14:11:04.157Z,5.68
2022-11-05T14:13:40.684Z,5.47
2022-11-05T14:16:10.272Z,5.22
2022-11-05T14:18:55.005Z,6.07
2022-11-05T14:21:30.381Z,4.80
2022-11-05T14:23:59.587Z,6.25
2022-11-05T14:26:28.702Z,4.95
2022-11-05T14:29:04.713Z,6.15
2022-11-05T14:31:54.294Z,5.45
2022-11-05T14:34:40.716Z,5.97
2022-11-05T14:37:13.163Z,5.75
2022-11-05T14:39:40.981Z,5.93
2022-11-05T14:42:28.023Z,5.60
2022-11-05T14:44:57.817Z,4.72
2022-11-05T14:47:28.881Z,5.10
2022-11-05T14:50:08.830Z,4.82
2022-11-05T14:52:37.404Z,4.70
2022-11-05T14:55:05.464Z,5.13
2022-11-05T14:57:44.151Z,5.15
2022-11-05T15:00:29.374Z,5.53
2022-11-05T15:02:58.380Z,4.95
2022-11-05T15:05:38.846Z,5.82
2022-11-05T15:08:26.677Z,5.95
2022-11-05T15:10:58.002Z,6.70
2022-11-05T15:13:35.529Z,5.78
2022-11-05T15:16:06.007Z,5.38
2022-11-05T15:18:43.208Z,7.53
2022-11-05T15:21:15.016Z,6.68
2022-11-05T15:23:44.632Z,6.38
2022-11-05T15:26:26.356Z,7.68
2022-11-05T15:28:55.009Z,6.68
2022-11-05T15:31:35.491Z,6.40
2022-11-05T15:34:20.419Z,6.55
2022-11-05T15:36:51.537Z,6.88
2022-11-05T15:39:42.119Z,7.63
2022-11-05T15:42:22.924Z,7.68
2022-11-05T15:44:55.587Z,6.65
2022-11-05T15:47:30.956Z,6.55
2022-11-05T15:50:02.687Z,5.72
2022-11-05T15:52:37.080Z,7.95
2022-11-05T15:55:25.303Z,7.05
2022-11-05T15:57:54.621Z,6.97
2022-11-05T16:00:25.107Z,8.00
2022-11-05T16:02:58.374Z,7.95
2022-11-05T16:05:33.798Z,6.50
2022-11-05T16:08:04.227Z,9.20
2022-11-05T16:10:33.963Z,10.32
2022-11-05T16:13:26.302Z,10.90
2022-11-05T16:15:55.370Z,14.90
2022-11-05T16:18:24.421Z,14.98
2022-11-05T16:21:23.176Z,12.95
2022-11-05T16:23:54.444Z,11.70
2022-11-05T16:27:01.804Z,8.35
2022-11-05T16:29:40.748Z,10.18
2022-11-05T16:32:18.340Z,13.55
2022-11-05T16:34:52.115Z,12.73
2022-11-05T16:37:23.806Z,13.55
2022-11-05T16:39:51.263Z,13.35
2022-11-05T16:42:38.115Z,15.43
2022-11-05T16:45:06.120Z,16.15
2022-11-05T16:47:33.048Z,15.93
2022-11-05T16:49:59.947Z,20.20
2022-11-05T16:52:26.880Z,23.40
2022-11-05T16:54:53.737Z,27.75
2022-11-05T16:57:31.101Z,22.23
2022-11-05T17:00:00.357Z,23.23
2022-11-05T17:02:28.026Z,24.20
2022-11-05T17:04:55.144Z,27.23
2022-11-05T17:07:21.965Z,26.38
2022-11-05T17:09:48.882Z,28.52
2022-11-05T17:12:15.835Z,26.83
2022-11-05T17:14:42.805Z,15.05
2022-11-05T17:17:10.951Z,31.17
2022-11-05T17:19:42.330Z,31.83
2022-11-05T17:22:09.369Z,29.38
2022-11-05T17:24:36.348Z,32.40
2022-11-05T17:27:03.362Z,32.05
2022-11-05T17:29:30.257Z,38.33
2022-11-05T17:31:57.101Z,37.13
2022-11-05T17:34:24.148Z,38.88
2022-11-05T17:36:50.967Z,36.70
2022-11-05T17:39:17.856Z,24.05
2022-11-05T17:41:44.902Z,22.48
2022-11-05T17:44:12.236Z,24.58
2022-11-05T17:46:39.216Z,15.20
2022-11-05T17:49:06.252Z,14.35
2022-11-05T17:51:34.512Z,16.17
2022-11-05T17:54:03.847Z,17.75
2022-11-05T17:56:35.551Z,19.67
2022-11-05T17:59:03.923Z,19.17
2022-11-05T18:01:33.301Z,23.80
2022-11-05T18:04:07.288Z,21.75
2022-11-05T18:06:39.888Z,24.35
2022-11-05T18:09:08.599Z,28.35
2022-11-05T18:11:36.811Z,37.20
2022-11-05T18:14:04.671Z,27.30
2022-11-05T18:16:32.068Z,25.75
2022-11-05T18:18:58.974Z,21.75
2022-11-05T18:21:26.048Z,21.65
2022-11-05T18:23:53.214Z,28.38
2022-11-05T18:26:20.195Z,36.97
2022-11-05T18:28:47.004Z,41.17
2022-11-05T18:31:18.320Z,57.60
2022-11-05T18:33:45.856Z,52.35
2022-11-05T18:36:21.229Z,37.55
2022-11-05T18:38:48.777Z,36.13
2022-11-05T18:41:16.092Z,33.45
2022-11-05T18:43:42.979Z,36.97
2022-11-05T18:46:23.811Z,35.78
2022-11-05T18:48:58.924Z,39.42
2022-11-05T18:51:26.255Z,34.10
2022-11-05T18:53:53.979Z,35.42
2022-11-05T18:56:21.279Z,36.70
2022-11-05T18:58:49.191Z,39.45
2022-11-05T19:01:22.432Z,36.60
2022-11-05T19:03:51.286Z,31.17
2022-11-05T19:06:18.891Z,35.17
2022-11-05T19:08:47.170Z,31.25
2022-11-05T19:11:17.730Z,35.08
2022-11-05T19:13:44.980Z,26.90
2022-11-05T19:16:15.678Z,29.75
2022-11-05T19:18:43.147Z,27.98
2022-11-05T19:21:22.827Z,26.55
2022-11-05T19:23:50.233Z,29.73
2022-11-05T19:26:25.616Z,31.58
2022-11-05T19:28:56.644Z,24.30
2022-11-05T19:31:23.973Z,24.83
2022-11-05T19:33:51.960Z,23.55
2022-11-05T19:36:20.638Z,26.65
2022-11-05T19:38:56.087Z,26.70
2022-11-05T19:41:23.567Z,28.77
2022-11-05T19:43:50.706Z,28.73
2022-11-05T19:46:20.132Z,28.63
2022-11-05T19:48:47.111Z,26.63
2022-11-05T19:51:19.826Z,25.08
2022-11-05T19:53:46.766Z,30.23
2022-11-05T19:56:16.859Z,28.13
2022-11-05T19:58:44.390Z,27.88
2022-11-05T20:01:12.879Z,29.92
2022-11-05T20:03:40.535Z,32.88
2022-11-05T20:06:10.613Z,31.98
2022-11-05T20:08:53.432Z,29.23
2022-11-05T20:11:25.133Z,27.50
2022-11-05T20:13:51.937Z,25.40
2022-11-05T20:16:27.522Z,25.83
2022-11-05T20:18:54.440Z,24.52
2022-11-05T20:21:21.259Z,26.17
2022-11-05T20:23:48.726Z,28.48
2022-11-05T20:26:16.004Z,32.50
2022-11-05T20:28:43.797Z,37.97
2022-11-05T20:31:13.804Z,37.10
2022-11-05T20:33:42.253Z,32.60
2022-11-05T20:36:14.306Z,37.10
2022-11-05T20:38:41.616Z,38.08
2022-11-05T20:41:12.829Z,35.17
2022-11-05T20:43:41.111Z,35.50
2022-11-05T20:46:09.623Z,32.80
2022-11-05T20:48:36.511Z,34.92
2022-11-05T20:51:09.009Z,41.58
2022-11-05T20:53:37.072Z,33.00
2022-11-05T20:56:07.832Z,29.25
2022-11-05T20:58:36.330Z,34.35
2022-11-05T21:01:04.991Z,56.65
2022-11-05T21:03:32.584Z,42.72
2022-11-05T21:06:04.161Z,30.60
2022-11-05T21:08:31.745Z,28.13
2022-11-05T21:10:59.099Z,26.85
2022-11-05T21:13:26.745Z,22.70
2022-11-05T21:15:56.251Z,24.35
2022-11-05T21:18:27.351Z,23.88
2022-11-05T21:20:54.573Z,24.08
2022-11-05T21:23:22.170Z,23.80
2022-11-05T21:25:49.809Z,25.25
2022-11-05T21:28:16.921Z,26.92
2022-11-05T21:30:45.830Z,30.00
2022-11-05T21:33:14.430Z,26.65
2022-11-05T21:35:46.040Z,30.05
2022-11-05T21:38:15.682Z,29.08
2022-11-05T21:40:43.702Z,26.92
2022-11-05T21:43:11.236Z,26.58
2022-11-05T21:45:40.250Z,27.33
2022-11-05T21:48:07.808Z,25.70
2022-11-05T21:50:53.987Z,26.92
2022-11-05T21:53:39.474Z,28.75
2022-11-05T21:56:26.413Z,23.30
2022-11-05T21:59:11.979Z,22.88
2022-11-05T22:01:38.888Z,23.55
2022-11-05T22:04:05.830Z,25.15
2022-11-05T22:06:33.518Z,22.38
2022-11-05T22:09:00.442Z,25.55
2022-11-05T22:11:27.224Z,22.50
2022-11-05T22:13:54.021Z,25.00
2022-11-05T22:16:20.855Z,24.05
2022-11-05T22:18:47.758Z,23.48
2022-11-05T22:21:18.852Z,22.88
2022-11-05T22:23:45.859Z,22.13
2022-11-05T22:26:13.034Z,21.15
2022-11-05T22:28:39.808Z,22.40
2022-11-05T22:31:17.079Z,21.90
2022-11-05T22:33:44.237Z,22.70
2022-11-05T22:36:11.952Z,22.52
2022-11-05T22:38:39.307Z,23.38
2022-11-05T22:41:13.108Z,20.85
2022-11-05T22:43:40.093Z,21.77
2022-11-05T22:46:13.652Z,21.23
2022-11-05T22:48:42.204Z,20.67
2022-11-05T22:51:12.382Z,21.17
2022-11-05T22:53:40.464Z,21.17
2022-11-05T22:56:10.979Z,20.17
2022-11-05T22:58:38.514Z,21.73
2022-11-05T23:01:06.841Z,22.10
2022-11-05T23:03:34.453Z,21.63
2022-11-05T23:06:26.922Z,21.17
2022-11-05T23:09:12.631Z,21.08
2022-11-05T23:11:41.133Z,20.70
2022-11-05T23:14:10.876Z,20.52
2022-11-05T23:16:56.854Z,21.45
2022-11-05T23:19:42.640Z,22.38
2022-11-05T23:22:33.358Z,23.55
2022-11-05T23:25:00.401Z,23.33
2022-11-05T23:27:31.472Z,22.40
2022-11-05T23:30:03.288Z,21.42
2022-11-05T23:32:32.068Z,22.42
2022-11-05T23:34:59.366Z,22.35
2022-11-05T23:37:47.706Z,33.85
2022-11-05T23:40:17.872Z,45.90
2022-11-05T23:43:05.547Z,30.90
2022-11-05T23:45:47.795Z,22.13
2022-11-05T23:48:20.973Z,21.13
2022-11-05T23:50:56.420Z,20.00
2022-11-05T23:53:24.147Z,19.48
2022-11-05T23:55:50.984Z,18.52
2022-11-05T23:58:18.239Z,21.70
